Time;durP1;ratioP1;P1;durP2;ratioP2;P2;SDS_P1;SDS_P2;PMS_P1;PMS_P2;Temp;Humidity;BMP_temperature;BMP_pressure;BME280_temperature;BME280_humidity;BME280_pressure;Samples;Min_cycle;Max_cycle;Signal;HPM_P1;HPM_P2
2023/08/16 00:00:57;;;;;;;14.60;12.50;;;;;;;20.87;74.33;98987.06;221527;1305;22586;-73
2023/08/16 00:06:08;;;;;;;13.40;11.80;;;;;;;20.84;74.55;98988.67;221512;1304;22584;-73
2023/08/16 00:11:10;;;;;;;13.80;11.60;;;;;;;20.81;74.66;98995.98;221566;1301;22581;-73
2023/08/16 00:16:13;;;;;;;13.40;12.00;;;;;;;20.76;74.77;98998.84;221593;1305;22600;-73
2023/08/16 00:21:15;;;;;;;13.90;11.30;;;;;;;20.73;74.95;99006.32;221571;1299;22609;-73
2023/08/16 00:26:17;;;;;;;14.10;11.60;;;;;;;20.69;75.08;99007.33;221570;1302;22576;-74
2023/08/16 00:31:19;;;;;;;12.80;11.40;;;;;;;20.65;75.22;99000.50;221598;1295;25300;-73
2023/08/16 00:36:22;;;;;;;14.80;11.60;;;;;;;20.61;75.33;99006.25;221612;1298;22575;-73
2023/08/16 00:41:25;;;;;;;14.60;11.70;;;;;;;20.56;75.48;99009.94;221549;1305;22568;-74
2023/08/16 00:46:30;;;;;;;14.20;12.10;;;;;;;20.50;75.64;99008.88;221599;1301;23056;-73
2023/08/16 00:51:34;;;;;;;14.70;11.50;;;;;;;20.43;75.82;99009.98;221497;1288;22587;-73
2023/08/16 00:56:36;;;;;;;13.70;12.30;;;;;;;20.38;75.94;99014.06;221460;1305;22624;-73
2023/08/16 01:01:38;;;;;;;12.60;11.30;;;;;;;20.34;76.10;99016.02;221594;1301;22678;-73
2023/08/16 01:06:40;;;;;;;14.40;13.00;;;;;;;20.33;76.43;99010.00;221626;1298;22678;-73
2023/08/16 01:11:52;;;;;;;15.00;12.30;;;;;;;20.31;76.38;99012.61;221589;1298;22578;-74
2023/08/16 01:16:55;;;;;;;14.40;12.60;;;;;;;20.28;76.56;99010.30;221578;1302;22535;-74
2023/08/16 01:22:15;;;;;;;13.50;12.10;;;;;;;20.24;76.88;99010.13;221615;1304;25418;-74
2023/08/16 01:27:21;;;;;;;13.30;11.90;;;;;;;20.20;77.12;99009.63;221637;1306;22581;-73
2023/08/16 01:32:23;;;;;;;13.20;11.50;;;;;;;20.14;77.21;99014.86;221534;1306;22588;-73
2023/08/16 01:37:25;;;;;;;14.00;12.60;;;;;;;20.08;77.34;99014.44;221595;1302;22631;-73
2023/08/16 01:42:32;;;;;;;13.80;12.30;;;;;;;20.03;77.66;99010.65;221617;1305;22569;-73
2023/08/16 01:47:36;;;;;;;13.90;12.50;;;;;;;19.97;77.82;99007.08;221569;1305;22619;-73
2023/08/16 01:52:39;;;;;;;15.10;12.80;;;;;;;19.93;77.84;99010.48;221627;1302;22617;-73
2023/08/16 01:57:41;;;;;;;15.30;13.10;;;;;;;19.88;77.90;99011.16;221596;1301;22559;-73
2023/08/16 02:02:44;;;;;;;17.90;13.50;;;;;;;19.83;77.85;99011.66;221581;1299;22594;-73
2023/08/16 02:07:46;;;;;;;13.60;12.20;;;;;;;19.79;77.78;99014.73;221325;1304;22582;-73
2023/08/16 02:12:48;;;;;;;18.40;14.20;;;;;;;19.75;77.77;99021.63;221364;1305;22606;-73
2023/08/16 02:17:50;;;;;;;14.50;12.70;;;;;;;19.71;77.82;99016.38;221492;1304;22703;-73
2023/08/16 02:22:52;;;;;;;14.80;12.60;;;;;;;19.68;77.90;99016.81;221538;1302;22694;-73
2023/08/16 02:27:54;;;;;;;17.00;12.80;;;;;;;19.64;78.03;99012.81;221546;1305;22568;-73
2023/08/16 02:32:56;;;;;;;15.30;12.50;;;;;;;19.60;78.14;99013.17;221505;1289;22573;-73
2023/08/16 02:37:59;;;;;;;14.10;12.70;;;;;;;19.56;78.16;99016.13;221598;1302;22584;-73
2023/08/16 02:43:00;;;;;;;14.30;12.80;;;;;;;19.55;78.36;99018.67;221558;1301;22562;-73
2023/08/16 02:48:03;;;;;;;13.20;12.00;;;;;;;19.53;78.43;99023.13;221561;1302;22622;-72
2023/08/16 02:53:05;;;;;;;15.80;12.90;;;;;;;19.50;78.52;99027.34;221476;1306;22568;-73
2023/08/16 02:58:07;;;;;;;13.30;11.90;;;;;;;19.45;78.67;99025.40;221284;1305;24242;-73
2023/08/16 03:03:10;;;;;;;14.70;12.80;;;;;;;19.40;78.75;99030.42;221489;1305;22938;-72
2023/08/16 03:08:12;;;;;;;15.10;13.00;;;;;;;19.34;79.03;99026.16;221496;1306;25244;-73
2023/08/16 03:13:15;;;;;;;13.90;12.50;;;;;;;19.29;79.10;99026.77;221512;1302;22594;-73
2023/08/16 03:18:17;;;;;;;14.20;12.80;;;;;;;19.25;79.24;99026.75;221471;1301;22569;-73
2023/08/16 03:23:21;;;;;;;14.30;12.90;;;;;;;19.21;79.33;99019.81;221482;1304;22573;-72
2023/08/16 03:28:23;;;;;;;14.30;12.90;;;;;;;19.19;79.36;99026.08;221456;1306;22577;-73
2023/08/16 03:33:25;;;;;;;13.90;12.60;;;;;;;19.17;79.57;99023.09;221321;1304;22572;-73
2023/08/16 03:38:27;;;;;;;13.60;12.20;;;;;;;19.18;79.60;99024.94;221601;1305;22572;-73
2023/08/16 03:43:31;;;;;;;12.80;11.50;;;;;;;19.20;79.73;99027.12;221586;1306;22577;-73
2023/08/16 03:48:35;;;;;;;13.00;11.90;;;;;;;19.24;79.90;99031.23;221289;1306;22569;-73
2023/08/16 03:53:39;;;;;;;13.30;11.90;;;;;;;19.28;79.92;99033.29;221506;1285;22598;-73
2023/08/16 03:58:41;;;;;;;13.40;12.20;;;;;;;19.35;80.08;99030.11;221593;1305;22954;-73
2023/08/16 04:03:43;;;;;;;14.50;12.30;;;;;;;19.42;79.87;99033.39;221631;1302;25379;-73
2023/08/16 04:08:45;;;;;;;12.60;11.20;;;;;;;19.50;79.99;99038.13;221511;1305;22588;-73
2023/08/16 04:13:47;;;;;;;13.10;11.80;;;;;;;19.60;80.07;99044.07;221525;1305;22577;-73
2023/08/16 04:18:53;;;;;;;14.00;12.60;;;;;;;19.72;79.97;99044.88;221662;1306;22581;-73
2023/08/16 04:23:56;;;;;;;14.00;12.60;;;;;;;19.84;79.96;99046.06;221602;1302;22621;-73
2023/08/16 04:28:58;;;;;;;13.80;12.40;;;;;;;19.95;79.79;99042.38;221597;1305;22568;-72
2023/08/16 04:34:00;;;;;;;15.10;13.60;;;;;;;20.04;79.80;99048.71;221654;1305;22600;-72
2023/08/16 04:39:02;;;;;;;15.10;13.70;;;;;;;20.14;79.51;99057.45;221636;1305;22685;-73
2023/08/16 04:44:05;;;;;;;17.10;13.00;;;;;;;20.24;79.49;99056.48;221544;1304;23162;-73
2023/08/16 04:49:07;;;;;;;15.30;13.40;;;;;;;20.31;79.23;99060.85;221622;1306;22594;-73
2023/08/16 04:54:09;;;;;;;15.30;13.10;;;;;;;20.32;78.84;99065.60;221652;1302;25360;-73
2023/08/16 04:59:12;;;;;;;14.40;12.80;;;;;;;20.32;78.72;99070.70;221678;1305;22573;-73
2023/08/16 05:04:14;;;;;;;14.80;13.30;;;;;;;20.39;78.86;99074.90;221339;1305;22842;-73
2023/08/16 05:09:16;;;;;;;14.50;13.00;;;;;;;20.51;78.83;99072.73;221598;1305;25388;-73
2023/08/16 05:14:19;;;;;;;14.30;13.00;;;;;;;20.67;78.80;99076.52;221615;1305;25277;-72
2023/08/16 05:19:21;;;;;;;14.40;12.80;;;;;;;20.84;78.98;99080.54;221674;1305;24535;-74
2023/08/16 05:24:23;;;;;;;15.00;13.40;;;;;;;21.02;79.01;99082.40;221443;1305;22578;-73
2023/08/16 05:29:25;;;;;;;16.80;13.80;;;;;;;21.21;79.12;99081.91;221656;1298;22601;-73
2023/08/16 05:34:30;;;;;;;17.90;14.40;;;;;;;21.45;79.26;99080.13;221403;1304;22604;-75
2023/08/16 05:39:32;;;;;;;18.40;14.00;;;;;;;21.68;78.90;99080.38;221226;1304;25313;-75
2023/08/16 05:44:34;;;;;;;18.50;14.30;;;;;;;21.93;78.65;99080.70;221246;1289;24267;-75
2023/08/16 05:49:35;;;;;;;20.60;12.80;;;;;;;22.19;78.37;99073.86;221318;1287;22721;-75
2023/08/16 05:54:37;;;;;;;15.40;12.40;;;;;;;22.45;77.83;99080.22;220705;1282;22575;-76
2023/08/16 05:59:40;;;;;;;16.30;12.60;;;;;;;22.73;77.31;99077.52;221265;1298;22580;-74
2023/08/16 06:04:42;;;;;;;17.30;11.20;;;;;;;23.00;76.84;99072.36;220941;1302;22576;-75
2023/08/16 06:09:45;;;;;;;16.00;11.20;;;;;;;23.26;76.22;99071.02;221050;1283;22569;-75
2023/08/16 06:14:47;;;;;;;16.30;10.60;;;;;;;23.52;75.42;99069.36;221147;1282;22556;-75
2023/08/16 06:19:49;;;;;;;13.60;10.20;;;;;;;23.77;74.96;99067.50;220676;1288;22681;-76
2023/08/16 06:24:53;;;;;;;17.50;11.00;;;;;;;24.02;74.20;99066.29;220886;1291;22976;-76
2023/08/16 06:29:55;;;;;;;14.60;10.50;;;;;;;24.24;73.41;99068.16;220807;1304;23134;-75
2023/08/16 06:34:57;;;;;;;53.80;12.90;;;;;;;24.49;73.11;99067.41;220902;1298;22592;-76
2023/08/16 06:39:59;;;;;;;11.30;9.80;;;;;;;24.73;72.64;99069.54;221010;1299;22589;-76
2023/08/16 06:45:01;;;;;;;13.00;9.70;;;;;;;24.94;72.12;99064.97;220912;1292;24313;-76
2023/08/16 06:50:04;;;;;;;11.00;9.70;;;;;;;25.17;71.72;99071.18;221092;1301;22627;-76
2023/08/16 06:55:06;;;;;;;11.50;10.40;;;;;;;25.34;70.89;99072.69;221123;1294;24556;-76
2023/08/16 07:00:10;;;;;;;11.50;10.30;;;;;;;25.47;70.66;99075.02;221233;1298;22592;-76
2023/08/16 07:05:12;;;;;;;11.60;10.10;;;;;;;25.66;70.54;99073.05;221249;1298;24288;-76
2023/08/16 07:10:14;;;;;;;14.50;11.30;;;;;;;25.77;69.89;99068.77;221371;1302;22563;-77
2023/08/16 07:15:16;;;;;;;10.70;9.90;;;;;;;25.92;69.99;99068.56;221180;1286;22612;-76
2023/08/16 07:20:18;;;;;;;11.60;10.20;;;;;;;26.21;69.93;99071.77;221262;1304;22603;-78
2023/08/16 07:25:20;;;;;;;11.20;9.70;;;;;;;26.56;69.30;99068.73;221323;1301;22583;-78
2023/08/16 07:30:22;;;;;;;12.10;9.80;;;;;;;26.94;68.86;99067.82;221329;1298;22605;-78
2023/08/16 07:35:25;;;;;;;11.50;10.00;;;;;;;27.29;68.30;99060.44;221338;1282;26097;-77
2023/08/16 07:40:27;;;;;;;14.40;10.30;;;;;;;27.65;67.67;99058.46;221334;1299;22590;-77
2023/08/16 07:45:28;;;;;;;12.50;11.00;;;;;;;27.94;66.51;99056.30;221073;1292;22702;-77
2023/08/16 07:50:31;;;;;;;11.30;9.40;;;;;;;28.33;66.21;99057.77;221436;1304;24368;-75
2023/08/16 07:55:33;;;;;;;12.00;9.40;;;;;;;28.71;64.73;99061.62;221471;1291;22580;-75
2023/08/16 08:00:35;;;;;;;16.50;14.40;;;;;;;29.18;64.56;99066.02;220964;1282;22585;-81
2023/08/16 08:05:38;;;;;;;12.50;10.50;;;;;;;29.52;62.97;99068.12;221240;1304;22609;-76
2023/08/16 08:10:44;;;;;;;10.30;9.30;;;;;;;29.74;62.62;99074.23;221305;1298;22555;-75
2023/08/16 08:15:46;;;;;;;11.60;9.70;;;;;;;29.93;62.01;99080.39;221021;1304;22580;-75
2023/08/16 08:20:48;;;;;;;9.80;8.90;;;;;;;30.15;61.79;99079.25;220925;1301;23465;-76
2023/08/16 08:25:50;;;;;;;9.50;8.50;;;;;;;30.24;60.91;99081.77;220911;1292;22601;-77
2023/08/16 08:30:53;;;;;;;9.40;8.50;;;;;;;30.37;60.40;99085.30;221200;1298;22565;-78
2023/08/16 08:35:55;;;;;;;10.10;8.80;;;;;;;30.49;59.43;99086.48;221228;1282;22607;-78
2023/08/16 08:40:58;;;;;;;8.70;8.00;;;;;;;30.57;58.82;99092.64;221345;1292;22551;-79
2023/08/16 08:46:06;;;;;;;8.50;7.80;;;;;;;30.72;58.65;99095.20;221349;1298;22602;-79
2023/08/16 08:51:08;;;;;;;8.00;7.20;;;;;;;30.88;58.57;99091.27;221208;1298;22535;-77
2023/08/16 08:56:15;;;;;;;8.50;7.40;;;;;;;31.02;57.85;99088.32;221229;1298;22585;-77
2023/08/16 09:01:20;;;;;;;8.10;7.50;;;;;;;31.03;56.85;99092.39;221162;1301;23696;-76
2023/08/16 09:06:22;;;;;;;10.40;8.20;;;;;;;31.05;57.05;99091.19;221146;1301;24990;-75
2023/08/16 09:11:27;;;;;;;21.30;19.10;;;;;;;31.03;56.77;99086.16;221108;1301;22659;-77
2023/08/16 09:16:29;;;;;;;9.00;8.30;;;;;;;31.09;56.66;99085.58;221278;1298;22565;-75
2023/08/16 09:21:33;;;;;;;9.10;8.10;;;;;;;31.20;56.19;99086.55;221110;1299;22579;-75
2023/08/16 09:26:37;;;;;;;9.00;7.60;;;;;;;31.16;55.82;99089.25;221427;1298;22598;-75
2023/08/16 09:31:41;;;;;;;9.20;8.00;;;;;;;31.25;55.71;99093.84;221368;1292;22593;-76
2023/08/16 09:36:47;;;;;;;8.50;7.60;;;;;;;31.24;55.06;99096.27;221263;1305;22571;-75
2023/08/16 09:41:50;;;;;;;10.40;8.10;;;;;;;31.26;55.28;99093.81;221184;1298;22587;-77
2023/08/16 09:47:13;;;;;;;11.80;9.40;;;;;;;31.32;55.16;99091.27;221221;1304;22590;-77
2023/08/16 09:52:22;;;;;;;9.80;8.00;;;;;;;31.22;54.58;99082.06;221329;1291;22721;-77
2023/08/16 09:57:24;;;;;;;10.90;7.40;;;;;;;31.25;54.69;99084.73;221260;1305;24956;-78
2023/08/16 10:02:30;;;;;;;8.30;7.20;;;;;;;31.35;54.26;99083.23;220992;1301;22579;-76
2023/08/16 10:07:36;;;;;;;8.60;7.70;;;;;;;31.32;54.03;99072.55;221257;1295;22598;-77
2023/08/16 10:12:45;;;;;;;7.90;7.10;;;;;;;31.22;53.95;99066.45;221124;1287;22590;-75
2023/08/16 10:17:50;;;;;;;9.00;7.80;;;;;;;31.07;53.48;99060.73;221295;1291;22576;-76
2023/08/16 10:23:00;;;;;;;12.90;11.70;;;;;;;31.12;53.97;99057.21;221080;1291;22612;-77
2023/08/16 10:28:03;;;;;;;8.50;7.80;;;;;;;31.42;53.58;99059.05;221183;1295;22594;-78
2023/08/16 10:33:16;;;;;;;8.20;7.40;;;;;;;31.64;52.51;99053.39;221109;1298;22628;-77
2023/08/16 10:38:21;;;;;;;8.10;7.50;;;;;;;31.68;51.78;99047.95;221200;1305;22567;-77
2023/08/16 10:43:31;;;;;;;8.20;7.40;;;;;;;31.62;52.00;99051.93;221162;1298;22579;-78
2023/08/16 10:48:36;;;;;;;8.10;7.00;;;;;;;31.65;51.84;99054.81;221021;1283;196404;-78
2023/08/16 10:53:40;;;;;;;8.00;7.30;;;;;;;31.86;51.83;99055.88;221021;1285;26023;-78
2023/08/16 10:58:46;;;;;;;9.70;8.60;;;;;;;32.13;51.78;99058.39;221046;1291;22599;-78
2023/08/16 11:03:49;;;;;;;8.30;7.50;;;;;;;32.46;51.16;99051.25;221017;1304;22577;-78
2023/08/16 11:08:51;;;;;;;7.70;7.00;;;;;;;32.74;50.81;99041.59;221189;1304;22592;-79
2023/08/16 11:13:58;;;;;;;7.00;6.40;;;;;;;32.95;49.92;99041.73;221167;1304;22804;-79
2023/08/16 11:19:04;;;;;;;7.40;6.90;;;;;;;32.95;49.18;99039.77;221246;1304;22577;-78
2023/08/16 11:24:23;;;;;;;7.10;6.50;;;;;;;33.04;49.03;99039.92;221298;1298;22697;-78
2023/08/16 11:29:25;;;;;;;7.70;7.10;;;;;;;33.04;48.75;99038.92;221142;1292;22625;-77
2023/08/16 11:34:31;;;;;;;8.40;7.30;;;;;;;33.12;49.24;99036.82;221023;1304;22685;-76
2023/08/16 11:39:36;;;;;;;7.80;7.00;;;;;;;33.36;49.33;99038.25;221112;1282;22712;-75
2023/08/16 11:44:39;;;;;;;7.30;6.80;;;;;;;33.39;48.90;99044.95;221217;1301;24257;-75
2023/08/16 11:49:41;;;;;;;7.90;7.30;;;;;;;33.50;48.62;99038.16;221159;1298;22698;-75
2023/08/16 11:54:43;;;;;;;8.70;7.80;;;;;;;33.63;48.78;99031.85;221200;1306;22631;-75
2023/08/16 11:59:57;;;;;;;8.50;7.70;;;;;;;33.56;48.35;99027.59;221444;1299;22714;-75
2023/08/16 12:05:09;;;;;;;8.40;7.60;;;;;;;33.55;48.47;99021.67;221176;1282;22638;-75
2023/08/16 12:10:22;;;;;;;9.70;8.90;;;;;;;33.57;48.54;99010.64;221159;1283;25295;-77
2023/08/16 12:15:26;;;;;;;8.60;7.50;;;;;;;33.70;48.59;99000.80;221167;1282;22562;-76
2023/08/16 12:20:29;;;;;;;7.20;6.70;;;;;;;33.74;47.85;98997.56;221006;1291;22768;-76
2023/08/16 12:25:31;;;;;;;8.90;8.10;;;;;;;33.76;47.82;98999.60;221071;1295;26354;-76
2023/08/16 12:30:33;;;;;;;11.00;10.20;;;;;;;33.76;47.35;98990.66;220989;1301;22672;-76
2023/08/16 12:35:35;;;;;;;16.80;15.30;;;;;;;33.86;47.68;98988.23;221084;1282;22609;-76
2023/08/16 12:40:44;;;;;;;8.60;7.90;;;;;;;33.92;47.27;98990.44;221046;1282;22642;-73
2023/08/16 12:45:46;;;;;;;8.50;7.70;;;;;;;34.10;47.37;98994.88;221134;1292;22575;-75
2023/08/16 12:50:48;;;;;;;8.50;7.80;;;;;;;34.23;46.89;98993.33;220917;1298;22616;-74
2023/08/16 12:56:05;;;;;;;8.70;7.90;;;;;;;34.27;46.64;98988.59;221200;1304;25435;-74
2023/08/16 13:01:08;;;;;;;9.00;8.10;;;;;;;34.26;46.80;98993.27;221067;1292;22556;-74
2023/08/16 13:06:19;;;;;;;10.80;9.90;;;;;;;34.35;46.43;98995.45;221043;1288;22572;-74
2023/08/16 13:11:32;;;;;;;8.90;8.20;;;;;;;34.40;46.34;98991.10;220997;1291;22585;-74
2023/08/16 13:23:46;;;;;;;9.90;9.10;;;;;;;34.64;46.73;98995.36;219457;1298;545185;-74
2023/08/16 13:29:11;;;;;;;10.40;9.60;;;;;;;34.54;46.55;98987.27;224586;1273;24294;-74
2023/08/16 13:34:29;;;;;;;13.20;9.90;;;;;;;34.41;46.65;98976.72;224603;1272;155922;-74
2023/08/16 13:39:34;;;;;;;10.00;9.00;;;;;;;34.34;46.85;98968.63;224920;1277;25303;-74
2023/08/16 13:44:44;;;;;;;10.00;9.20;;;;;;;34.40;46.88;98971.26;224904;1278;25299;-72
2023/08/16 13:50:06;;;;;;;10.60;9.80;;;;;;;34.41;46.90;98970.76;224793;1275;25313;-72
2023/08/16 13:55:08;;;;;;;10.70;9.60;;;;;;;34.38;46.78;98974.41;224842;1276;22584;-74
2023/08/16 14:00:11;;;;;;;9.80;8.90;;;;;;;34.26;46.94;98977.46;224930;1277;22556;-72
2023/08/16 14:05:13;;;;;;;10.40;9.50;;;;;;;34.13;47.09;98978.39;224729;1275;25371;-73
2023/08/16 14:10:15;;;;;;;10.00;9.10;;;;;;;34.00;47.23;98976.36;224810;1284;22550;-74
2023/08/16 14:15:17;;;;;;;13.00;10.00;;;;;;;33.79;47.04;98978.16;224965;1282;22546;-74
2023/08/16 14:20:19;;;;;;;11.80;10.60;;;;;;;33.49;47.46;98971.95;225245;1279;24339;-74
2023/08/16 14:25:21;;;;;;;11.10;10.10;;;;;;;33.36;48.04;98966.13;225249;1283;22543;-74
2023/08/16 14:30:23;;;;;;;11.90;10.70;;;;;;;33.28;48.35;98963.56;225140;1284;22661;-75
2023/08/16 14:35:25;;;;;;;12.00;11.00;;;;;;;33.24;48.50;98960.98;225190;1281;24916;-75
2023/08/16 14:40:27;;;;;;;12.50;11.30;;;;;;;33.23;48.57;98961.25;225169;1285;22543;-75
2023/08/16 14:45:32;;;;;;;12.00;10.90;;;;;;;33.26;48.53;98959.28;225250;1275;22598;-74
2023/08/16 14:50:34;;;;;;;11.80;10.70;;;;;;;33.30;48.73;98956.73;225163;1283;22601;-74
2023/08/16 14:55:36;;;;;;;12.10;10.90;;;;;;;33.21;48.52;98951.70;225256;1282;24262;-73
2023/08/16 15:00:38;;;;;;;11.70;10.60;;;;;;;33.05;48.37;98949.96;224993;1285;22539;-74
2023/08/16 15:05:40;;;;;;;11.50;10.50;;;;;;;32.84;48.66;98949.65;226417;1269;23282;-76
2023/08/16 15:10:46;;;;;;;11.10;10.10;;;;;;;32.72;48.72;98946.08;226416;1276;22590;-74
2023/08/16 15:15:47;;;;;;;11.40;10.40;;;;;;;32.65;48.45;98939.69;226435;1276;24900;-75
2023/08/16 15:20:50;;;;;;;12.40;11.20;;;;;;;32.62;48.87;98935.02;226551;1276;22551;-74
2023/08/16 15:25:52;;;;;;;12.10;11.00;;;;;;;32.62;48.98;98931.98;226264;1262;22551;-74
2023/08/16 15:30:56;;;;;;;12.50;11.40;;;;;;;32.69;49.20;98922.25;226486;1276;22537;-74
2023/08/16 15:35:58;;;;;;;12.00;11.10;;;;;;;32.74;49.37;98916.08;226249;1274;23070;-74
2023/08/16 15:41:00;;;;;;;13.00;11.90;;;;;;;32.72;49.08;98910.34;226506;1274;22551;-73
2023/08/16 15:46:03;;;;;;;12.70;11.40;;;;;;;32.73;49.55;98913.05;226352;1276;22593;-73
2023/08/16 15:51:05;;;;;;;12.30;11.20;;;;;;;32.69;49.87;98906.98;226535;1276;22572;-73
2023/08/16 15:56:07;;;;;;;11.80;10.80;;;;;;;32.67;49.76;98905.02;226458;1269;22537;-73
2023/08/16 16:01:09;;;;;;;12.50;11.40;;;;;;;32.67;50.27;98899.48;226546;1273;22543;-74
2023/08/16 16:06:11;;;;;;;11.80;10.80;;;;;;;32.71;50.34;98895.96;226379;1276;22536;-73
2023/08/16 16:11:13;;;;;;;12.40;11.30;;;;;;;32.72;50.38;98894.57;226346;1274;22587;-73
2023/08/16 16:16:15;;;;;;;12.40;11.20;;;;;;;32.68;50.14;98895.98;226482;1273;22534;-73
2023/08/16 16:21:20;;;;;;;11.90;10.70;;;;;;;32.59;50.39;98891.52;226271;1277;22578;-73
2023/08/16 16:26:22;;;;;;;12.10;11.10;;;;;;;32.49;50.70;98889.00;226215;1277;22537;-73
2023/08/16 16:31:25;;;;;;;15.70;14.00;;;;;;;32.42;51.13;98888.65;226447;1272;22488;-75
2023/08/16 16:36:30;;;;;;;15.80;14.40;;;;;;;32.34;50.99;98896.38;226392;1273;22546;-73
2023/08/16 16:41:31;;;;;;;11.90;10.90;;;;;;;32.19;51.66;98898.86;226419;1276;22575;-73
2023/08/16 16:46:33;;;;;;;13.10;11.80;;;;;;;31.99;51.63;98897.92;226278;1276;25395;-73
2023/08/16 16:51:35;;;;;;;12.90;11.90;;;;;;;31.75;52.01;98896.02;226561;1276;22540;-73
2023/08/16 16:56:37;;;;;;;12.70;11.40;;;;;;;31.43;52.46;98898.12;226432;1263;24202;-74
2023/08/16 17:01:39;;;;;;;12.60;11.50;;;;;;;31.11;52.76;98901.96;226395;1276;22553;-74
2023/08/16 17:06:41;;;;;;;13.50;12.30;;;;;;;30.86;53.33;98909.52;226514;1276;22542;-73
2023/08/16 17:11:43;;;;;;;13.30;12.00;;;;;;;30.60;53.78;98917.49;226394;1272;22541;-72
2023/08/16 17:16:46;;;;;;;12.60;11.40;;;;;;;30.26;54.22;98920.13;226406;1272;22653;-74
2023/08/16 17:21:48;;;;;;;13.00;11.90;;;;;;;29.97;54.79;98926.48;226365;1276;22520;-74
2023/08/16 17:26:50;;;;;;;12.90;11.50;;;;;;;29.69;54.88;98936.73;226488;1266;22543;-75
2023/08/16 17:31:52;;;;;;;12.70;11.40;;;;;;;29.42;55.50;98942.43;226312;1277;22595;-74
2023/08/16 17:36:54;;;;;;;12.70;11.50;;;;;;;29.15;55.80;98942.52;226457;1276;22541;-75
2023/08/16 17:41:56;;;;;;;13.00;11.80;;;;;;;28.92;56.04;98948.08;226205;1277;25347;-75
2023/08/16 17:46:58;;;;;;;13.50;11.30;;;;;;;28.70;56.62;98948.02;226290;1275;22542;-74
2023/08/16 17:52:01;;;;;;;12.60;11.30;;;;;;;28.47;57.22;98947.31;226521;1273;24771;-75
2023/08/16 17:57:04;;;;;;;12.30;11.20;;;;;;;28.27;57.62;98947.05;226295;1274;22582;-74
2023/08/16 18:02:06;;;;;;;13.10;11.90;;;;;;;28.05;57.88;98945.06;226353;1270;22546;-73
2023/08/16 18:07:08;;;;;;;12.50;11.20;;;;;;;27.82;58.36;98946.10;226460;1277;22599;-73
2023/08/16 18:12:11;;;;;;;12.30;11.30;;;;;;;27.62;58.94;98949.30;226232;1277;22520;-73
2023/08/16 18:17:13;;;;;;;13.70;11.50;;;;;;;27.45;59.14;98951.88;226423;1277;22557;-74
2023/08/16 18:22:14;;;;;;;13.50;12.10;;;;;;;27.27;59.53;98951.48;226304;1277;22524;-74
2023/08/16 18:27:16;;;;;;;13.10;11.40;;;;;;;27.10;60.04;98960.23;226369;1277;22548;-75
2023/08/16 18:32:19;;;;;;;13.20;11.70;;;;;;;26.93;60.36;98963.30;226416;1256;22535;-74
2023/08/16 18:37:20;;;;;;;13.00;11.80;;;;;;;26.80;60.85;98968.27;226226;1260;22678;-74
2023/08/16 18:42:23;;;;;;;12.30;11.30;;;;;;;26.67;61.27;98972.55;226292;1277;22537;-74
2023/08/16 18:47:25;;;;;;;13.50;12.10;;;;;;;26.54;61.66;98972.69;226206;1273;22559;-73
2023/08/16 18:52:27;;;;;;;13.80;12.50;;;;;;;26.42;62.01;98972.87;226468;1277;25163;-73
2023/08/16 18:57:30;;;;;;;13.30;12.10;;;;;;;26.32;62.43;98976.86;226422;1276;22553;-73
2023/08/16 19:02:32;;;;;;;14.00;12.70;;;;;;;26.24;62.86;98978.44;226352;1276;22531;-73
2023/08/16 19:07:34;;;;;;;13.80;12.50;;;;;;;26.15;63.07;98981.11;226105;1276;25197;-74
2023/08/16 19:12:36;;;;;;;12.30;11.10;;;;;;;26.07;63.23;98981.58;226521;1275;24166;-73
2023/08/16 19:17:38;;;;;;;12.90;11.70;;;;;;;26.02;63.60;98980.80;226765;1272;22547;-74
2023/08/16 19:22:40;;;;;;;14.20;11.00;;;;;;;25.96;63.73;98981.52;226818;1273;22527;-74
2023/08/16 19:27:42;;;;;;;12.00;10.80;;;;;;;25.90;63.71;98982.30;227023;1272;22538;-74
2023/08/16 19:32:44;;;;;;;14.70;11.90;;;;;;;25.86;63.95;98979.89;226827;1274;22534;-74
2023/08/16 19:37:46;;;;;;;13.60;12.30;;;;;;;25.80;64.30;98981.58;226795;1274;23261;-74
2023/08/16 19:42:48;;;;;;;13.50;12.20;;;;;;;25.73;64.54;98979.89;226679;1274;22993;-74
2023/08/16 19:47:50;;;;;;;13.30;11.90;;;;;;;25.63;64.88;98975.41;226838;1274;22626;-73
2023/08/16 19:52:54;;;;;;;13.80;12.40;;;;;;;25.55;64.92;98970.61;226704;1274;22549;-73
2023/08/16 19:57:57;;;;;;;13.60;12.20;;;;;;;25.48;65.32;98966.23;226801;1265;22920;-75
2023/08/16 20:03:00;;;;;;;13.40;12.00;;;;;;;25.39;65.26;98965.70;226908;1260;22529;-73
2023/08/16 20:08:03;;;;;;;13.60;12.30;;;;;;;25.31;65.54;98968.45;226666;1274;22576;-73
2023/08/16 20:13:05;;;;;;;13.00;11.70;;;;;;;25.21;65.84;98966.23;226769;1274;24208;-74
2023/08/16 20:18:07;;;;;;;14.60;11.80;;;;;;;25.11;65.96;98962.82;226963;1272;22838;-73
2023/08/16 20:23:09;;;;;;;13.50;12.30;;;;;;;25.02;66.17;98962.48;226815;1274;22529;-74
2023/08/16 20:28:11;;;;;;;14.10;12.70;;;;;;;24.91;66.44;98958.99;226872;1273;22533;-74
2023/08/16 20:33:15;;;;;;;14.20;12.10;;;;;;;24.81;66.67;98961.56;226997;1272;22633;-73
2023/08/16 20:38:17;;;;;;;15.70;12.50;;;;;;;24.73;66.98;98960.64;226997;1272;24231;-73
2023/08/16 20:43:20;;;;;;;13.60;11.90;;;;;;;24.67;67.18;98962.05;226896;1269;22543;-73
2023/08/16 20:48:22;;;;;;;13.90;12.60;;;;;;;24.60;67.50;98960.57;226917;1274;22533;-74
2023/08/16 20:53:24;;;;;;;14.40;12.90;;;;;;;24.53;67.73;98972.79;226928;1274;22540;-74
2023/08/16 20:58:27;;;;;;;14.20;12.70;;;;;;;24.46;68.08;98975.30;227001;1274;22533;-74
2023/08/16 21:03:28;;;;;;;14.00;12.70;;;;;;;24.42;68.25;98974.01;227032;1273;24206;-74
2023/08/16 21:08:31;;;;;;;14.70;13.20;;;;;;;24.39;68.61;98973.90;226935;1274;22555;-75
2023/08/16 21:13:35;;;;;;;13.60;12.50;;;;;;;24.36;68.73;98978.00;226989;1263;22569;-74
2023/08/16 21:18:37;;;;;;;15.60;13.10;;;;;;;24.33;68.91;98977.87;226839;1274;22537;-74
2023/08/16 21:23:39;;;;;;;14.90;13.50;;;;;;;24.30;69.10;98981.86;226957;1272;22520;-73
2023/08/16 21:28:41;;;;;;;14.40;13.00;;;;;;;24.28;69.26;98988.50;226856;1251;22530;-74
2023/08/16 21:33:43;;;;;;;14.10;12.70;;;;;;;24.28;69.27;98984.77;226859;1269;22565;-74
2023/08/16 21:38:45;;;;;;;14.90;12.80;;;;;;;24.29;69.34;98987.91;226781;1273;24746;-73
2023/08/16 21:43:47;;;;;;;14.30;13.00;;;;;;;24.31;69.52;98975.70;226873;1273;22642;-73
2023/08/16 21:48:50;;;;;;;14.30;12.90;;;;;;;24.30;69.55;98983.98;226901;1274;22551;-75
2023/08/16 21:53:52;;;;;;;14.70;13.30;;;;;;;24.29;69.70;98988.19;226931;1273;22556;-74
2023/08/16 21:58:54;;;;;;;15.30;13.60;;;;;;;24.26;69.87;98988.29;226978;1272;22559;-74
2023/08/16 22:03:56;;;;;;;17.40;13.60;;;;;;;24.24;69.93;98994.77;226852;1269;22537;-73
2023/08/16 22:08:58;;;;;;;16.10;14.60;;;;;;;24.19;70.21;99009.77;226848;1273;22541;-73
2023/08/16 22:14:00;;;;;;;15.50;13.80;;;;;;;24.12;70.44;99014.52;226679;1260;22716;-73
2023/08/16 22:19:02;;;;;;;16.50;14.10;;;;;;;24.04;70.82;99016.89;226913;1273;22571;-74
2023/08/16 22:24:05;;;;;;;15.60;13.90;;;;;;;23.93;71.18;99018.55;226897;1257;22570;-74
2023/08/16 22:29:07;;;;;;;16.90;14.60;;;;;;;23.86;71.49;99013.38;226978;1274;25013;-73
2023/08/16 22:34:09;;;;;;;15.60;13.90;;;;;;;23.80;71.78;99014.28;226989;1273;22596;-73
2023/08/16 22:39:11;;;;;;;15.10;13.60;;;;;;;23.74;71.82;99001.22;226807;1273;22564;-73
2023/08/16 22:44:13;;;;;;;14.30;12.90;;;;;;;23.69;71.99;99000.95;226808;1273;22537;-73
2023/08/16 22:49:15;;;;;;;13.90;12.40;;;;;;;23.65;71.98;99000.93;226755;1273;22521;-73
2023/08/16 22:54:17;;;;;;;13.30;11.20;;;;;;;23.62;71.75;99002.70;226782;1273;25548;-73
2023/08/16 22:59:21;;;;;;;11.60;10.50;;;;;;;23.60;71.43;99012.41;226817;1273;22563;-73
2023/08/16 23:04:23;;;;;;;11.60;10.50;;;;;;;23.59;70.99;99008.16;226790;1273;22530;-73
2023/08/16 23:09:26;;;;;;;10.60;9.60;;;;;;;23.57;70.70;99014.90;226754;1273;22597;-74